Companion Ship — WDF3026 — position and weather

sailwx.info

Track history (hours):
 
Tides and Currents Weather Stations Pressure Air Temp Water Temp Dewpoint Dewpoint Depression Visibility Wind Speed Wind Dir Waves Ship Positions

Companion Ship

Owner: brunkow, robert w, friday harbor, WA. More information available from US FCC via Universal Licensing System and Coast Guard Vessel Documentation Center.

Last reported at 2016-Jun-30 09:33 UTC. Time now 2016-Jun-30 10:34 UTC.
Position N 50°09' W 124°40'.

Length 20 m; draft 2 m.

Type: Pleasure craft. MMSI: 367434940.

Date/timePositionNaut miles runAvg speedWind from/ knotsBaromVisibWave heightAir tempDewpointWater temp
2016-Jun-30 09:33N 50°09' W 124°40'0 0.0
2016-Jun-30 08:33N 50°09' W 124°40'0 0.0
2016-Jun-30 07:33N 50°09' W 124°40'0 0.0
2016-Jun-30 06:33N 50°09' W 124°40'0 0.0
2016-Jun-30 05:33N 50°09' W 124°40'0 0.0
2016-Jun-30 04:33N 50°09' W 124°40'0 0.0
2016-Jun-30 03:33N 50°09' W 124°40'0 0.0
2016-Jun-30 02:33N 50°09' W 124°40'0 0.0
2016-Jun-30 01:33N 50°09' W 124°40'0 0.0
2016-Jun-30 00:33N 50°09' W 124°40'0 0.0
2016-Jun-29 23:33N 50°09' W 124°40'0 0.0
2016-Jun-29 22:33N 50°09' W 124°40'0 0.0
2016-Jun-29 21:33N 50°09' W 124°40'0 0.0
2016-Jun-29 20:33N 50°09' W 124°40'0 0.0
2016-Jun-29 19:33N 50°09' W 124°40'0 0.0
2016-Jun-29 18:33N 50°09' W 124°40'2 1.6
2016-Jun-29 17:33N 50°07' W 124°42'0 0.4
2016-Jun-29 16:33N 50°08' W 124°42'0 0.0
2016-Jun-29 15:33N 50°08' W 124°42'0 0.0
2016-Jun-29 14:33N 50°08' W 124°42'0 0.0
2016-Jun-29 13:33N 50°08' W 124°42'0 0.0
2016-Jun-29 12:33N 50°08' W 124°42'0 0.0
2016-Jun-29 11:33N 50°08' W 124°42'0 0.0
2016-Jun-29 10:33N 50°08' W 124°42'0 0.0
2016-Jun-29 09:33N 50°08' W 124°42'0 0.0
2016-Jun-29 08:33N 50°08' W 124°42'0 0.0
2016-Jun-29 07:33N 50°08' W 124°42'0 0.0
2016-Jun-29 06:33N 50°08' W 124°42'0 0.0
2016-Jun-29 05:32N 50°08' W 124°42'0 0.0
2016-Jun-29 04:33N 50°08' W 124°42'0 0.0
2016-Jun-29 03:33N 50°08' W 124°42'0 0.0
2016-Jun-29 02:33N 50°08' W 124°42'0 0.0
2016-Jun-29 01:33N 50°08' W 124°42'0 0.0
2016-Jun-29 00:33N 50°08' W 124°42'0 0.0
2016-Jun-28 23:33N 50°08' W 124°42'0 0.0
2016-Jun-28 22:33N 50°08' W 124°42'3 3.0
2016-Jun-28 21:33N 50°06' W 124°46'3 3.3
2016-Jun-28 20:33N 50°07' W 124°50'1 1.1
2016-Jun-28 19:33N 50°06' W 124°51'3 2.6
2016-Jun-28 18:33N 50°07' W 124°55'1 0.8
2016-Jun-28 17:33N 50°08' W 124°55'0 0.0
2016-Jun-28 16:33N 50°08' W 124°55'0 0.0
2016-Jun-28 15:32N 50°08' W 124°55'0 0.0
2016-Jun-28 14:33N 50°08' W 124°55'0 0.0
2016-Jun-28 13:31N 50°08' W 124°55'0 0.0
2016-Jun-28 12:33N 50°08' W 124°55'0 0.0
2016-Jun-28 11:33N 50°08' W 124°55'0 0.0
2016-Jun-28 10:33N 50°08' W 124°55'0 0.0
2016-Jun-28 09:33N 50°08' W 124°55'0 0.0
2016-Jun-28 08:33N 50°08' W 124°55'0 0.0
2016-Jun-28 07:33N 50°08' W 124°55'0 0.0
2016-Jun-28 06:33N 50°08' W 124°55'0 0.0
2016-Jun-28 04:33N 50°08' W 124°55'0 0.0
2016-Jun-28 03:33N 50°08' W 124°55'0 0.0
2016-Jun-28 02:33N 50°08' W 124°55'0 0.0
2016-Jun-28 01:33N 50°08' W 124°55'0 0.0
2016-Jun-28 00:33N 50°08' W 124°55'0 0.0
2016-Jun-27 23:33N 50°08' W 124°55'0 0.0
2016-Jun-27 22:33N 50°08' W 124°55'0 0.0
2016-Jun-27 21:33N 50°08' W 124°55'7 6.8
2016-Jun-27 20:33N 50°01' W 124°55'6 5.9
2016-Jun-27 19:33N 50°06' W 125°01'1 0.5
2016-Jun-27 18:33N 50°06' W 125°01'0 0.0
2016-Jun-27 17:33N 50°06' W 125°01'0 0.0
2016-Jun-27 16:33N 50°06' W 125°01'0 0.0
2016-Jun-27 15:33N 50°06' W 125°01'0 0.0
2016-Jun-27 14:33N 50°06' W 125°01'0 0.0
2016-Jun-27 13:33N 50°06' W 125°01'0 0.0
2016-Jun-27 12:33N 50°06' W 125°01'0 0.0
2016-Jun-27 11:33N 50°06' W 125°01'0 0.0
2016-Jun-27 10:33N 50°06' W 125°01'0 0.0
2016-Jun-26 10:18N 50°06' W 125°01'0 0.0
2016-Jun-26 09:33N 50°06' W 125°01'0 0.0
2016-Jun-26 08:33N 50°06' W 125°01'0 0.0
2016-Jun-26 07:33N 50°06' W 125°01'0 0.0
2016-Jun-26 06:33N 50°06' W 125°01'0 0.0
2016-Jun-26 05:33N 50°06' W 125°01'0 0.0
2016-Jun-26 04:33N 50°06' W 125°01'0 0.0
2016-Jun-26 03:33N 50°06' W 125°01'0 0.0
2016-Jun-26 02:33N 50°06' W 125°01'0 0.0
2016-Jun-26 01:33N 50°06' W 125°01'0 0.0
2016-Jun-26 00:33N 50°06' W 125°01'0 0.0
2016-Jun-25 23:33N 50°06' W 125°01'0 0.0
2016-Jun-25 22:33N 50°06' W 125°01'8 8.2
2016-Jun-25 21:33N 49°59' W 125°08'6 5.5
2016-Jun-25 20:33N 50°02' W 125°15'0 0.0
2016-Jun-25 19:33N 50°02' W 125°15'0 0.0
2016-Jun-25 18:33N 50°02' W 125°15'0 0.0
2016-Jun-25 17:33N 50°02' W 125°15'0 0.0
2016-Jun-25 16:33N 50°02' W 125°15'0 0.0
2016-Jun-25 15:33N 50°02' W 125°15'0 0.0
2016-Jun-25 14:33N 50°02' W 125°15'0 0.0
2016-Jun-25 13:33N 50°02' W 125°15'0 0.0
2016-Jun-25 12:33N 50°02' W 125°15'0 0.0
2016-Jun-25 11:33N 50°02' W 125°15'0 0.0
2016-Jun-25 10:33N 50°02' W 125°15'0 0.0
2016-Jun-25 07:33N 50°02' W 125°15'0 0.0
2016-Jun-25 06:33N 50°02' W 125°15'0 0.0
2016-Jun-25 05:33N 50°02' W 125°15'0 0.0
2016-Jun-25 04:33N 50°02' W 125°15'0 0.0
2016-Jun-25 03:33N 50°02' W 125°15'0 0.0
2016-Jun-25 02:33N 50°02' W 125°15'0 0.0
2016-Jun-25 01:33N 50°02' W 125°15'0 0.0
2016-Jun-25 00:33N 50°02' W 125°15'0 0.0
2016-Jun-24 23:33N 50°02' W 125°15'0 0.0
2016-Jun-24 22:33N 50°02' W 125°15'0 0.0
2016-Jun-24 21:33N 50°02' W 125°15'0 0.0
2016-Jun-24 20:33N 50°02' W 125°15'0 0.0
2016-Jun-24 19:33N 50°02' W 125°15'0 0.0
2016-Jun-24 18:33N 50°02' W 125°15'0 0.0
2016-Jun-24 17:33N 50°02' W 125°15'0 0.1
2016-Jun-24 16:33N 50°02' W 125°15'4 4.4
2016-Jun-24 15:33N 50°02' W 125°08'1010.2
2016-Jun-24 14:33N 50°12' W 125°08'6 4.1
2016-Jun-24 13:13N 50°16' W 125°15'0 0.0
2016-Jun-24 12:33N 50°16' W 125°15'0 0.0
2016-Jun-24 11:21N 50°16' W 125°15'0 0.0
2016-Jun-24 10:07N 50°16' W 125°15'0 0.0
2016-Jun-24 09:17N 50°16' W 125°15'0 0.0
2016-Jun-24 08:30N 50°16' W 125°15'0 0.0
2016-Jun-24 07:28N 50°16' W 125°15'0 0.0
2016-Jun-24 06:31N 50°16' W 125°15'0 0.0
2016-Jun-24 03:22N 50°16' W 125°15'0 0.0
2016-Jun-24 02:04N 50°16' W 125°15'0 0.0
2016-Jun-24 01:32N 50°16' W 125°15'0 0.0
2016-Jun-24 00:28N 50°16' W 125°15'0 0.0
2016-Jun-23 23:10N 50°16' W 125°15'0 0.0
2016-Jun-23 22:30N 50°16' W 125°15'0 0.0
2016-Jun-23 21:32N 50°16' W 125°15'  
Track history (hours):
 
Tides and Currents Weather Stations Pressure Air Temp Water Temp Dewpoint Dewpoint Depression Visibility Wind Speed Wind Dir Waves Ship Positions

Companion Ship

Owner: brunkow, robert w, friday harbor, WA. More information available from US FCC via Universal Licensing System and Coast Guard Vessel Documentation Center.

Last reported at 2016-Jun-30 09:33 UTC. Time now 2016-Jun-30 10:34 UTC.
Position N 50°09' W 124°40'.

Length 20 m; draft 2 m.

Type: Pleasure craft. MMSI: 367434940.

Date/timePositionNaut miles runAvg speedWind from/ knotsBaromVisibWave heightAir tempDewpointWater temp
2016-Jun-30 09:33N 50°09' W 124°40'0 0.0
2016-Jun-30 08:33N 50°09' W 124°40'0 0.0
2016-Jun-30 07:33N 50°09' W 124°40'0 0.0
2016-Jun-30 06:33N 50°09' W 124°40'0 0.0
2016-Jun-30 05:33N 50°09' W 124°40'0 0.0
2016-Jun-30 04:33N 50°09' W 124°40'0 0.0
2016-Jun-30 03:33N 50°09' W 124°40'0 0.0
2016-Jun-30 02:33N 50°09' W 124°40'0 0.0
2016-Jun-30 01:33N 50°09' W 124°40'0 0.0
2016-Jun-30 00:33N 50°09' W 124°40'0 0.0
2016-Jun-29 23:33N 50°09' W 124°40'0 0.0
2016-Jun-29 22:33N 50°09' W 124°40'0 0.0
2016-Jun-29 21:33N 50°09' W 124°40'0 0.0
2016-Jun-29 20:33N 50°09' W 124°40'0 0.0
2016-Jun-29 19:33N 50°09' W 124°40'0 0.0
2016-Jun-29 18:33N 50°09' W 124°40'2 1.6
2016-Jun-29 17:33N 50°07' W 124°42'0 0.4
2016-Jun-29 16:33N 50°08' W 124°42'0 0.0
2016-Jun-29 15:33N 50°08' W 124°42'0 0.0
2016-Jun-29 14:33N 50°08' W 124°42'0 0.0
2016-Jun-29 13:33N 50°08' W 124°42'0 0.0
2016-Jun-29 12:33N 50°08' W 124°42'0 0.0
2016-Jun-29 11:33N 50°08' W 124°42'0 0.0
2016-Jun-29 10:33N 50°08' W 124°42'0 0.0
2016-Jun-29 09:33N 50°08' W 124°42'0 0.0
2016-Jun-29 08:33N 50°08' W 124°42'0 0.0
2016-Jun-29 07:33N 50°08' W 124°42'0 0.0
2016-Jun-29 06:33N 50°08' W 124°42'0 0.0
2016-Jun-29 05:32N 50°08' W 124°42'0 0.0
2016-Jun-29 04:33N 50°08' W 124°42'0 0.0
2016-Jun-29 03:33N 50°08' W 124°42'0 0.0
2016-Jun-29 02:33N 50°08' W 124°42'0 0.0
2016-Jun-29 01:33N 50°08' W 124°42'0 0.0
2016-Jun-29 00:33N 50°08' W 124°42'0 0.0
2016-Jun-28 23:33N 50°08' W 124°42'0 0.0
2016-Jun-28 22:33N 50°08' W 124°42'3 3.0
2016-Jun-28 21:33N 50°06' W 124°46'3 3.3
2016-Jun-28 20:33N 50°07' W 124°50'1 1.1
2016-Jun-28 19:33N 50°06' W 124°51'3 2.6
2016-Jun-28 18:33N 50°07' W 124°55'1 0.8
2016-Jun-28 17:33N 50°08' W 124°55'0 0.0
2016-Jun-28 16:33N 50°08' W 124°55'0 0.0
2016-Jun-28 15:32N 50°08' W 124°55'0 0.0
2016-Jun-28 14:33N 50°08' W 124°55'0 0.0
2016-Jun-28 13:31N 50°08' W 124°55'0 0.0
2016-Jun-28 12:33N 50°08' W 124°55'0 0.0
2016-Jun-28 11:33N 50°08' W 124°55'0 0.0
2016-Jun-28 10:33N 50°08' W 124°55'0 0.0
2016-Jun-28 09:33N 50°08' W 124°55'0 0.0
2016-Jun-28 08:33N 50°08' W 124°55'0 0.0
2016-Jun-28 07:33N 50°08' W 124°55'0 0.0
2016-Jun-28 06:33N 50°08' W 124°55'0 0.0
2016-Jun-28 04:33N 50°08' W 124°55'0 0.0
2016-Jun-28 03:33N 50°08' W 124°55'0 0.0
2016-Jun-28 02:33N 50°08' W 124°55'0 0.0
2016-Jun-28 01:33N 50°08' W 124°55'0 0.0
2016-Jun-28 00:33N 50°08' W 124°55'0 0.0
2016-Jun-27 23:33N 50°08' W 124°55'0 0.0
2016-Jun-27 22:33N 50°08' W 124°55'0 0.0
2016-Jun-27 21:33N 50°08' W 124°55'7 6.8
2016-Jun-27 20:33N 50°01' W 124°55'6 5.9
2016-Jun-27 19:33N 50°06' W 125°01'1 0.5
2016-Jun-27 18:33N 50°06' W 125°01'0 0.0
2016-Jun-27 17:33N 50°06' W 125°01'0 0.0
2016-Jun-27 16:33N 50°06' W 125°01'0 0.0
2016-Jun-27 15:33N 50°06' W 125°01'0 0.0
2016-Jun-27 14:33N 50°06' W 125°01'0 0.0
2016-Jun-27 13:33N 50°06' W 125°01'0 0.0
2016-Jun-27 12:33N 50°06' W 125°01'0 0.0
2016-Jun-27 11:33N 50°06' W 125°01'0 0.0
2016-Jun-27 10:33N 50°06' W 125°01'0 0.0
2016-Jun-26 10:18N 50°06' W 125°01'0 0.0
2016-Jun-26 09:33N 50°06' W 125°01'0 0.0
2016-Jun-26 08:33N 50°06' W 125°01'0 0.0
2016-Jun-26 07:33N 50°06' W 125°01'0 0.0
2016-Jun-26 06:33N 50°06' W 125°01'0 0.0
2016-Jun-26 05:33N 50°06' W 125°01'0 0.0
2016-Jun-26 04:33N 50°06' W 125°01'0 0.0
2016-Jun-26 03:33N 50°06' W 125°01'0 0.0
2016-Jun-26 02:33N 50°06' W 125°01'0 0.0
2016-Jun-26 01:33N 50°06' W 125°01'0 0.0
2016-Jun-26 00:33N 50°06' W 125°01'0 0.0
2016-Jun-25 23:33N 50°06' W 125°01'0 0.0
2016-Jun-25 22:33N 50°06' W 125°01'8 8.2
2016-Jun-25 21:33N 49°59' W 125°08'6 5.5
2016-Jun-25 20:33N 50°02' W 125°15'0 0.0
2016-Jun-25 19:33N 50°02' W 125°15'0 0.0
2016-Jun-25 18:33N 50°02' W 125°15'0 0.0
2016-Jun-25 17:33N 50°02' W 125°15'0 0.0
2016-Jun-25 16:33N 50°02' W 125°15'0 0.0
2016-Jun-25 15:33N 50°02' W 125°15'0 0.0
2016-Jun-25 14:33N 50°02' W 125°15'0 0.0
2016-Jun-25 13:33N 50°02' W 125°15'0 0.0
2016-Jun-25 12:33N 50°02' W 125°15'0 0.0
2016-Jun-25 11:33N 50°02' W 125°15'0 0.0
2016-Jun-25 10:33N 50°02' W 125°15'0 0.0
2016-Jun-25 07:33N 50°02' W 125°15'0 0.0
2016-Jun-25 06:33N 50°02' W 125°15'0 0.0
2016-Jun-25 05:33N 50°02' W 125°15'0 0.0
2016-Jun-25 04:33N 50°02' W 125°15'0 0.0
2016-Jun-25 03:33N 50°02' W 125°15'0 0.0
2016-Jun-25 02:33N 50°02' W 125°15'0 0.0
2016-Jun-25 01:33N 50°02' W 125°15'0 0.0
2016-Jun-25 00:33N 50°02' W 125°15'0 0.0
2016-Jun-24 23:33N 50°02' W 125°15'0 0.0
2016-Jun-24 22:33N 50°02' W 125°15'0 0.0
2016-Jun-24 21:33N 50°02' W 125°15'0 0.0
2016-Jun-24 20:33N 50°02' W 125°15'0 0.0
2016-Jun-24 19:33N 50°02' W 125°15'0 0.0
2016-Jun-24 18:33N 50°02' W 125°15'0 0.0
2016-Jun-24 17:33N 50°02' W 125°15'0 0.1
2016-Jun-24 16:33N 50°02' W 125°15'4 4.4
2016-Jun-24 15:33N 50°02' W 125°08'1010.2
2016-Jun-24 14:33N 50°12' W 125°08'6 4.1
2016-Jun-24 13:13N 50°16' W 125°15'0 0.0
2016-Jun-24 12:33N 50°16' W 125°15'0 0.0
2016-Jun-24 11:21N 50°16' W 125°15'0 0.0
2016-Jun-24 10:07N 50°16' W 125°15'0 0.0
2016-Jun-24 09:17N 50°16' W 125°15'0 0.0
2016-Jun-24 08:30N 50°16' W 125°15'0 0.0
2016-Jun-24 07:28N 50°16' W 125°15'0 0.0
2016-Jun-24 06:31N 50°16' W 125°15'0 0.0
2016-Jun-24 03:22N 50°16' W 125°15'0 0.0
2016-Jun-24 02:04N 50°16' W 125°15'0 0.0
2016-Jun-24 01:32N 50°16' W 125°15'0 0.0
2016-Jun-24 00:28N 50°16' W 125°15'0 0.0
2016-Jun-23 23:10N 50°16' W 125°15'0 0.0
2016-Jun-23 22:30N 50°16' W 125°15'0 0.0
2016-Jun-23 21:32N 50°16' W 125°15'  

Dump ship's entire track history